createdAt,value
2017-01-10T00:00:49.403Z,966.62
2017-01-10T00:01:49.361Z,966.57
2017-01-10T00:02:49.317Z,966.56
2017-01-10T00:03:49.275Z,966.6
2017-01-10T00:04:49.232Z,966.6
2017-01-10T00:05:49.191Z,966.52
2017-01-10T00:06:49.145Z,966.54
2017-01-10T00:07:49.102Z,966.53
2017-01-10T00:08:49.060Z,966.52
2017-01-10T00:09:49.016Z,966.51
2017-01-10T00:10:48.973Z,966.49
2017-01-10T00:11:48.931Z,966.47
2017-01-10T00:12:48.887Z,966.47
2017-01-10T00:13:48.842Z,966.42
2017-01-10T00:14:48.800Z,966.39
2017-01-10T00:15:48.756Z,966.41
2017-01-10T00:16:48.715Z,966.43
2017-01-10T00:17:48.669Z,966.43
2017-01-10T00:18:48.627Z,966.39
2017-01-10T00:19:48.583Z,966.38
2017-01-10T00:20:48.540Z,966.41
2017-01-10T00:21:48.496Z,966.36
2017-01-10T00:22:48.453Z,966.34
2017-01-10T00:23:48.410Z,966.35
2017-01-10T00:24:48.367Z,966.34
2017-01-10T00:25:48.325Z,966.34
2017-01-10T00:26:48.281Z,966.3
2017-01-10T00:27:48.238Z,966.31
2017-01-10T00:28:48.195Z,966.28
2017-01-10T00:29:48.153Z,966.27
2017-01-10T00:30:48.109Z,966.31
2017-01-10T00:31:48.065Z,966.27
2017-01-10T00:32:48.024Z,966.25
2017-01-10T00:33:47.978Z,966.2
2017-01-10T00:34:47.937Z,966.23
2017-01-10T00:35:47.893Z,966.22
2017-01-10T00:36:47.849Z,966.21
2017-01-10T00:37:47.806Z,966.22
2017-01-10T00:38:47.764Z,966.21
2017-01-10T00:39:47.719Z,966.23
2017-01-10T00:40:47.677Z,966.19
2017-01-10T00:41:47.633Z,966.23
2017-01-10T00:42:47.591Z,966.2
2017-01-10T00:43:47.548Z,966.2
2017-01-10T00:44:47.505Z,966.16
2017-01-10T00:45:47.462Z,966.13
2017-01-10T00:46:47.418Z,966.12
2017-01-10T00:47:47.374Z,966.1
2017-01-10T00:48:47.332Z,966.15
2017-01-10T00:49:47.290Z,966.12
2017-01-10T00:50:47.245Z,966.08
2017-01-10T00:51:47.202Z,966.06
2017-01-10T00:52:47.159Z,966.07
2017-01-10T00:53:47.116Z,966.04
2017-01-10T00:54:47.072Z,966.08
2017-01-10T00:55:47.029Z,966.04
2017-01-10T00:56:46.987Z,966.03
2017-01-10T00:57:46.944Z,965.98
2017-01-10T00:58:46.903Z,965.94
2017-01-10T00:59:46.857Z,965.88
2017-01-10T01:00:46.814Z,965.87
2017-01-10T01:01:46.769Z,965.81
2017-01-10T01:02:46.732Z,965.85
2017-01-10T01:03:46.684Z,965.83
2017-01-10T01:04:46.639Z,965.81
2017-01-10T01:05:46.597Z,965.84
2017-01-10T01:06:46.553Z,965.8
2017-01-10T01:07:46.511Z,965.83
2017-01-10T01:08:46.468Z,965.86
2017-01-10T01:09:46.425Z,965.81
2017-01-10T01:10:46.383Z,965.73
2017-01-10T01:11:46.339Z,965.75
2017-01-10T01:12:46.295Z,965.72
2017-01-10T01:13:46.251Z,965.69
2017-01-10T01:14:46.209Z,965.72
2017-01-10T01:15:46.165Z,965.7
2017-01-10T01:16:46.122Z,965.67
2017-01-10T01:17:46.079Z,965.71
2017-01-10T01:18:46.034Z,965.67
2017-01-10T01:19:45.991Z,965.66
2017-01-10T01:20:45.948Z,965.63
2017-01-10T01:21:45.906Z,965.66
2017-01-10T01:22:45.861Z,965.65
2017-01-10T01:23:45.820Z,965.66
2017-01-10T01:24:45.775Z,965.59
2017-01-10T01:25:45.731Z,965.54
2017-01-10T01:26:45.688Z,965.57
2017-01-10T01:27:45.645Z,965.56
2017-01-10T01:28:45.602Z,965.53
2017-01-10T01:29:45.559Z,965.49
2017-01-10T01:30:45.516Z,965.49
2017-01-10T01:31:45.472Z,965.47
2017-01-10T01:32:45.429Z,965.47
2017-01-10T01:33:45.385Z,965.41
2017-01-10T01:34:45.343Z,965.41
2017-01-10T01:35:45.299Z,965.42
2017-01-10T01:36:45.256Z,965.42
2017-01-10T01:37:45.212Z,965.44
2017-01-10T01:38:45.169Z,965.39
2017-01-10T01:39:45.126Z,965.36
2017-01-10T01:40:45.082Z,965.34
2017-01-10T01:41:45.040Z,965.33
2017-01-10T01:42:44.997Z,965.29
2017-01-10T01:43:44.952Z,965.24
2017-01-10T01:44:44.909Z,965.21
2017-01-10T01:45:44.866Z,965.19
2017-01-10T01:46:44.823Z,965.19
2017-01-10T01:47:44.778Z,965.17
2017-01-10T01:48:44.735Z,965.16
2017-01-10T01:49:44.695Z,965.2
2017-01-10T01:50:44.650Z,965.15
2017-01-10T01:51:44.607Z,965.09
2017-01-10T01:52:44.562Z,965.06
2017-01-10T01:53:44.519Z,965.03
2017-01-10T01:54:44.477Z,965.04
2017-01-10T01:55:44.433Z,965.04
2017-01-10T01:56:44.389Z,965.01
2017-01-10T01:57:44.348Z,965.02
2017-01-10T01:58:44.304Z,965.02
2017-01-10T01:59:44.262Z,965.01
2017-01-10T02:00:44.215Z,965.01
2017-01-10T02:01:44.173Z,965.05
2017-01-10T02:02:44.129Z,964.98
2017-01-10T02:03:44.085Z,965.03
2017-01-10T02:04:44.044Z,964.98
2017-01-10T02:05:43.999Z,964.98
2017-01-10T02:06:43.956Z,964.94
2017-01-10T02:07:43.916Z,964.96
2017-01-10T02:08:43.871Z,964.94
2017-01-10T02:09:43.828Z,964.92
2017-01-10T02:10:43.797Z,964.91
2017-01-10T02:11:43.740Z,964.91
2017-01-10T02:12:43.698Z,964.92
2017-01-10T02:13:43.654Z,964.87
2017-01-10T02:14:43.609Z,964.9
2017-01-10T02:15:43.568Z,964.87
2017-01-10T02:16:43.524Z,964.86
2017-01-10T02:17:43.480Z,964.82
2017-01-10T02:18:43.437Z,964.84
2017-01-10T02:19:43.394Z,964.77
2017-01-10T02:20:43.352Z,964.74
2017-01-10T02:21:43.308Z,964.74
2017-01-10T02:22:43.265Z,964.73
2017-01-10T02:23:43.223Z,964.66
2017-01-10T02:24:43.178Z,964.64
2017-01-10T02:25:43.134Z,964.64
2017-01-10T02:26:43.092Z,964.68
2017-01-10T02:27:43.051Z,964.66
2017-01-10T02:28:43.006Z,964.7
2017-01-10T02:29:42.984Z,964.7
2017-01-10T02:30:42.919Z,964.68
2017-01-10T02:31:42.877Z,964.64
2017-01-10T02:32:42.833Z,964.62
2017-01-10T02:33:42.789Z,964.61
2017-01-10T02:34:42.747Z,964.57
2017-01-10T02:35:42.705Z,964.54
2017-01-10T02:36:42.660Z,964.48
2017-01-10T02:37:42.618Z,964.48
2017-01-10T02:38:42.574Z,964.5
2017-01-10T02:39:42.530Z,964.47
2017-01-10T02:40:42.486Z,964.48
2017-01-10T02:41:42.444Z,964.48
2017-01-10T02:42:42.402Z,964.49
2017-01-10T02:43:42.357Z,964.5
2017-01-10T02:44:42.316Z,964.48
2017-01-10T02:45:42.272Z,964.5
2017-01-10T02:46:42.229Z,964.47
2017-01-10T02:47:42.185Z,964.47
2017-01-10T02:48:42.142Z,964.5
2017-01-10T02:49:42.098Z,964.48
2017-01-10T02:50:42.054Z,964.47
2017-01-10T02:51:42.012Z,964.42
2017-01-10T02:52:41.970Z,964.42
2017-01-10T02:53:41.928Z,964.41
2017-01-10T02:54:41.880Z,964.44
2017-01-10T02:55:41.838Z,964.41
2017-01-10T02:56:41.794Z,964.38
2017-01-10T02:57:41.750Z,964.38
2017-01-10T02:58:41.708Z,964.35
2017-01-10T02:59:41.664Z,964.4
2017-01-10T03:00:41.624Z,964.34
2017-01-10T03:01:41.579Z,964.25
2017-01-10T03:02:41.534Z,964.31
2017-01-10T03:03:41.492Z,964.3
2017-01-10T03:04:41.448Z,964.25
2017-01-10T03:05:41.403Z,964.25
2017-01-10T03:06:41.363Z,964.24
2017-01-10T03:07:41.318Z,964.19
2017-01-10T03:08:41.274Z,964.17
2017-01-10T03:09:41.233Z,964.2
2017-01-10T03:10:41.188Z,964.18
2017-01-10T03:11:41.145Z,964.17
2017-01-10T03:12:41.101Z,964.15
2017-01-10T03:13:41.059Z,964.14
2017-01-10T03:14:41.015Z,964.14
2017-01-10T03:15:40.974Z,964.13
2017-01-10T03:16:40.928Z,964.09
2017-01-10T03:17:40.885Z,964.07
2017-01-10T03:18:40.841Z,964.04
2017-01-10T03:19:40.797Z,964.06
2017-01-10T03:20:40.756Z,964.05
2017-01-10T03:21:40.711Z,964.06
2017-01-10T03:22:40.668Z,964.04
2017-01-10T03:23:40.625Z,964.09
2017-01-10T03:24:40.581Z,964.03
2017-01-10T03:25:40.539Z,964.07
2017-01-10T03:26:40.495Z,964.01
2017-01-10T03:27:40.450Z,964
2017-01-10T03:28:40.411Z,964
2017-01-10T03:29:40.367Z,963.97
2017-01-10T03:30:40.323Z,963.93
2017-01-10T03:31:40.279Z,963.97
2017-01-10T03:32:40.235Z,963.91
2017-01-10T03:33:52.935Z,963.88
2017-01-10T03:34:40.150Z,963.88
2017-01-10T03:35:40.106Z,963.81
2017-01-10T03:36:40.065Z,963.8
2017-01-10T03:37:40.021Z,963.74
2017-01-10T03:38:39.976Z,963.78
2017-01-10T03:39:39.933Z,963.72
2017-01-10T03:40:39.892Z,963.74
2017-01-10T03:41:39.847Z,963.71
2017-01-10T03:42:39.804Z,963.65
2017-01-10T03:43:39.764Z,963.63
2017-01-10T03:44:39.718Z,963.62
2017-01-10T03:45:39.674Z,963.62
2017-01-10T03:46:39.631Z,963.6
2017-01-10T03:47:39.588Z,963.54
2017-01-10T03:48:39.547Z,963.55
2017-01-10T03:49:39.500Z,963.51
2017-01-10T03:50:39.458Z,963.49
2017-01-10T03:51:39.415Z,963.5
2017-01-10T03:52:39.372Z,963.44
2017-01-10T03:53:39.329Z,963.43
2017-01-10T03:54:39.285Z,963.38
2017-01-10T03:55:39.242Z,963.33
2017-01-10T03:56:39.198Z,963.32
2017-01-10T03:57:39.156Z,963.33
2017-01-10T03:58:39.115Z,963.33
2017-01-10T03:59:39.071Z,963.31
2017-01-10T04:00:39.029Z,963.25
2017-01-10T04:02:24.703Z,963.23
2017-01-10T04:03:24.652Z,963.19
2017-01-10T04:04:24.612Z,963.2
2017-01-10T04:05:24.569Z,963.18
2017-01-10T04:06:24.527Z,963.19
2017-01-10T04:07:24.482Z,963.21
2017-01-10T04:08:24.439Z,963.16
2017-01-10T04:09:24.397Z,963.19
2017-01-10T04:10:24.353Z,963.15
2017-01-10T04:11:24.309Z,963.16
2017-01-10T04:12:24.266Z,963.12
2017-01-10T04:13:24.223Z,963.12
2017-01-10T04:14:24.181Z,963.1
2017-01-10T04:15:24.137Z,963.08
2017-01-10T04:16:24.093Z,963.03
2017-01-10T04:17:24.049Z,963.01
2017-01-10T04:18:24.007Z,963.03
2017-01-10T04:19:23.964Z,963.03
2017-01-10T04:20:23.924Z,962.98
2017-01-10T04:21:23.877Z,962.9
2017-01-10T04:22:23.833Z,962.94
2017-01-10T04:23:23.790Z,962.93
2017-01-10T04:24:23.756Z,962.92
2017-01-10T04:25:23.703Z,962.89
2017-01-10T04:26:23.661Z,962.87
2017-01-10T04:27:23.616Z,962.82
2017-01-10T04:28:23.574Z,962.79
2017-01-10T04:29:23.531Z,962.78
2017-01-10T04:30:23.488Z,962.74
2017-01-10T04:31:23.445Z,962.8
2017-01-10T04:32:23.401Z,962.78
2017-01-10T04:33:23.356Z,962.79
2017-01-10T04:34:23.314Z,962.73
2017-01-10T04:35:23.270Z,962.74
2017-01-10T04:36:23.226Z,962.69
2017-01-10T04:37:23.183Z,962.73
2017-01-10T04:38:23.141Z,962.72
2017-01-10T04:39:23.098Z,962.69
2017-01-10T04:40:23.054Z,962.66
2017-01-10T04:41:23.012Z,962.66
2017-01-10T04:42:22.968Z,962.62
2017-01-10T04:43:22.927Z,962.56
2017-01-10T04:44:22.881Z,962.55
2017-01-10T04:45:22.838Z,962.51
2017-01-10T04:46:22.796Z,962.5
2017-01-10T04:47:22.751Z,962.46
2017-01-10T04:48:22.708Z,962.45
2017-01-10T04:49:22.665Z,962.46
2017-01-10T04:50:22.621Z,962.44
2017-01-10T04:51:22.578Z,962.41
2017-01-10T04:52:22.535Z,962.35
2017-01-10T04:53:22.492Z,962.34
2017-01-10T04:54:22.448Z,962.34
2017-01-10T04:55:22.404Z,962.3
2017-01-10T04:56:22.361Z,962.28
2017-01-10T04:57:22.317Z,962.28
2017-01-10T04:58:22.274Z,962.26
2017-01-10T04:59:22.232Z,962.26
2017-01-10T05:00:22.188Z,962.24
2017-01-10T05:01:22.144Z,962.22
2017-01-10T05:02:22.104Z,962.21
2017-01-10T05:03:22.058Z,962.23
2017-01-10T05:04:22.014Z,962.24
2017-01-10T05:05:21.971Z,962.26
2017-01-10T05:06:21.927Z,962.21
2017-01-10T05:07:21.883Z,962.2
2017-01-10T05:08:21.840Z,962.23
2017-01-10T05:09:21.796Z,962.16
2017-01-10T05:10:21.752Z,962.1
2017-01-10T05:11:21.709Z,962.09
2017-01-10T05:12:21.666Z,962.08
2017-01-10T05:13:21.621Z,962.09
2017-01-10T05:14:21.578Z,962.05
2017-01-10T05:15:21.535Z,962.02
2017-01-10T05:16:21.492Z,962.03
2017-01-10T05:17:21.446Z,961.96
2017-01-10T05:18:21.404Z,961.98
2017-01-10T05:19:21.360Z,961.95
2017-01-10T05:20:21.315Z,961.96
2017-01-10T05:21:21.271Z,961.9
2017-01-10T05:22:21.232Z,961.92
2017-01-10T05:23:21.185Z,961.92
2017-01-10T05:24:21.140Z,961.87
2017-01-10T05:25:21.099Z,961.89
2017-01-10T05:26:21.054Z,961.82
2017-01-10T05:27:21.011Z,961.84
2017-01-10T05:28:20.966Z,961.83
2017-01-10T05:29:20.923Z,961.83
2017-01-10T05:30:20.880Z,961.85
2017-01-10T05:31:20.837Z,961.8
2017-01-10T05:32:20.792Z,961.77
2017-01-10T05:33:20.749Z,961.75
2017-01-10T05:34:20.706Z,961.8
2017-01-10T05:35:20.662Z,961.77
2017-01-10T05:36:20.618Z,961.75
2017-01-10T05:37:20.575Z,961.76
2017-01-10T05:38:20.530Z,961.68
2017-01-10T05:39:20.488Z,961.68
2017-01-10T05:40:20.442Z,961.72
2017-01-10T05:41:20.400Z,961.7
2017-01-10T05:42:20.356Z,961.67
2017-01-10T05:43:20.312Z,961.69
2017-01-10T05:44:20.287Z,961.69
2017-01-10T05:45:20.225Z,961.7
2017-01-10T05:46:20.179Z,961.64
2017-01-10T05:47:20.137Z,961.64
2017-01-10T05:48:20.094Z,961.64
2017-01-10T05:49:20.051Z,961.65
2017-01-10T05:50:20.005Z,961.62
2017-01-10T05:51:19.962Z,961.62
2017-01-10T05:52:19.918Z,961.58
2017-01-10T05:53:19.874Z,961.52
2017-01-10T05:54:19.830Z,961.53
2017-01-10T05:55:19.787Z,961.51
2017-01-10T05:56:19.744Z,961.52
2017-01-10T05:57:19.698Z,961.49
2017-01-10T05:58:19.656Z,961.49
2017-01-10T05:59:19.612Z,961.5
2017-01-10T06:00:19.568Z,961.5
2017-01-10T06:01:19.526Z,961.53
2017-01-10T06:02:19.480Z,961.48
2017-01-10T06:03:19.451Z,961.51
2017-01-10T06:04:19.392Z,961.5
2017-01-10T06:05:19.349Z,961.44
2017-01-10T06:06:19.306Z,961.41
2017-01-10T06:07:19.262Z,961.37
2017-01-10T06:08:19.216Z,961.38
2017-01-10T06:09:19.173Z,961.39
2017-01-10T06:10:19.130Z,961.37
2017-01-10T06:11:19.086Z,961.36
2017-01-10T06:12:19.043Z,961.33
2017-01-10T06:13:18.998Z,961.36
2017-01-10T06:14:18.954Z,961.31
2017-01-10T06:15:18.911Z,961.36
2017-01-10T06:16:18.866Z,961.38
2017-01-10T06:17:18.823Z,961.29
2017-01-10T06:18:18.779Z,961.3
2017-01-10T06:19:18.736Z,961.24
2017-01-10T06:20:18.690Z,961.3
2017-01-10T06:21:18.647Z,961.22
2017-01-10T06:22:18.603Z,961.23
2017-01-10T06:23:18.561Z,961.17
2017-01-10T06:24:18.516Z,961.15
2017-01-10T06:25:18.472Z,961.16
2017-01-10T06:26:18.429Z,961.09
2017-01-10T06:27:18.384Z,961.09
2017-01-10T06:28:18.341Z,961.07
2017-01-10T06:29:18.296Z,960.97
2017-01-10T06:30:18.253Z,960.96
2017-01-10T06:31:18.209Z,960.93
2017-01-10T06:32:18.165Z,960.89
2017-01-10T06:33:18.120Z,960.85
2017-01-10T06:34:18.077Z,960.83
2017-01-10T06:35:18.034Z,960.79
2017-01-10T06:36:17.991Z,960.79
2017-01-10T06:37:17.946Z,960.83
2017-01-10T06:38:17.901Z,960.83
2017-01-10T06:39:17.857Z,960.83
2017-01-10T06:40:17.816Z,960.84
2017-01-10T06:41:17.775Z,960.86
2017-01-10T06:42:17.725Z,960.82
2017-01-10T06:43:17.682Z,960.84
2017-01-10T06:44:17.638Z,960.82
2017-01-10T06:45:17.594Z,960.8
2017-01-10T06:46:17.550Z,960.71
2017-01-10T06:47:17.506Z,960.68
2017-01-10T06:48:17.463Z,960.66
2017-01-10T06:49:17.418Z,960.7
2017-01-10T06:50:17.374Z,960.7
2017-01-10T06:51:17.332Z,960.67
2017-01-10T06:52:17.287Z,960.67
2017-01-10T06:53:17.244Z,960.64
2017-01-10T06:54:17.201Z,960.64
2017-01-10T06:55:17.156Z,960.57
2017-01-10T06:56:17.111Z,960.62
2017-01-10T06:57:17.067Z,960.6
2017-01-10T06:58:17.023Z,960.54
2017-01-10T06:59:16.978Z,960.56
2017-01-10T07:00:16.934Z,960.52
2017-01-10T07:01:16.891Z,960.49
2017-01-10T07:02:16.850Z,960.45
2017-01-10T07:03:16.804Z,960.42
2017-01-10T07:04:16.763Z,960.39
2017-01-10T07:05:16.716Z,960.39
2017-01-10T07:06:16.674Z,960.36
2017-01-10T07:07:16.628Z,960.39
2017-01-10T07:08:16.586Z,960.36
2017-01-10T07:09:16.540Z,960.3
2017-01-10T07:10:16.496Z,960.25
2017-01-10T07:11:16.453Z,960.3
2017-01-10T07:12:16.409Z,960.25
2017-01-10T07:13:16.366Z,960.25
2017-01-10T07:14:16.319Z,960.22
2017-01-10T07:15:16.276Z,960.22
2017-01-10T07:16:16.233Z,960.23
2017-01-10T07:17:16.188Z,960.15
2017-01-10T07:18:16.144Z,960.12
2017-01-10T07:19:16.101Z,960.14
2017-01-10T07:20:16.058Z,960.07
2017-01-10T07:21:16.013Z,960.07
2017-01-10T07:22:15.968Z,960.01
2017-01-10T07:23:15.925Z,960
2017-01-10T07:24:15.881Z,959.99
2017-01-10T07:25:15.837Z,959.97
2017-01-10T07:26:15.793Z,959.96
2017-01-10T07:27:15.750Z,959.92
2017-01-10T07:28:15.705Z,959.97
2017-01-10T07:29:15.662Z,959.91
2017-01-10T07:30:15.617Z,959.93
2017-01-10T07:31:15.574Z,959.94
2017-01-10T07:32:15.531Z,959.94
2017-01-10T07:33:15.491Z,959.97
2017-01-10T07:34:15.444Z,959.9
2017-01-10T07:35:15.401Z,959.99
2017-01-10T07:36:15.360Z,959.97
2017-01-10T07:37:15.316Z,959.96
2017-01-10T07:38:15.271Z,960.02
2017-01-10T07:39:15.228Z,959.97
2017-01-10T07:40:15.185Z,959.93
2017-01-10T07:41:15.143Z,959.98
2017-01-10T07:42:15.100Z,959.95
2017-01-10T07:43:15.057Z,959.88
2017-01-10T07:44:15.014Z,959.83
2017-01-10T07:45:14.971Z,959.82
2017-01-10T07:46:14.927Z,959.82
2017-01-10T07:47:14.885Z,959.75
2017-01-10T07:48:14.843Z,959.73
2017-01-10T07:49:14.800Z,959.73
2017-01-10T07:50:14.764Z,959.75
2017-01-10T07:51:14.714Z,959.75
2017-01-10T07:52:14.673Z,959.72
2017-01-10T07:53:14.629Z,959.72
2017-01-10T07:54:14.585Z,959.74
2017-01-10T07:55:14.542Z,959.7
2017-01-10T07:56:14.500Z,959.7
2017-01-10T07:57:14.457Z,959.7
2017-01-10T07:58:14.414Z,959.7
2017-01-10T07:59:14.371Z,959.66
2017-01-10T08:00:14.330Z,959.69
2017-01-10T08:01:14.285Z,959.68
2017-01-10T08:02:14.251Z,959.63
2017-01-10T08:03:14.204Z,959.6
2017-01-10T08:04:14.157Z,959.59
2017-01-10T08:05:14.114Z,959.57
2017-01-10T08:06:14.071Z,959.58
2017-01-10T08:07:14.028Z,959.57
2017-01-10T08:08:13.984Z,959.56
2017-01-10T08:09:13.942Z,959.58
2017-01-10T08:10:13.899Z,959.58
2017-01-10T08:11:13.858Z,959.6
2017-01-10T08:12:13.814Z,959.61
2017-01-10T08:13:13.769Z,959.63
2017-01-10T08:14:13.727Z,959.64
2017-01-10T08:15:13.686Z,959.58
2017-01-10T08:16:13.641Z,959.62
2017-01-10T08:17:13.597Z,959.57
2017-01-10T08:18:13.556Z,959.57
2017-01-10T08:19:13.509Z,959.55
2017-01-10T08:20:13.468Z,959.52
2017-01-10T08:21:13.424Z,959.49
2017-01-10T08:22:13.381Z,959.46
2017-01-10T08:23:13.341Z,959.43
2017-01-10T08:24:13.295Z,959.42
2017-01-10T08:25:13.252Z,959.42
2017-01-10T08:26:13.210Z,959.38
2017-01-10T08:27:13.171Z,959.37
2017-01-10T08:28:13.123Z,959.37
2017-01-10T08:29:13.079Z,959.35
2017-01-10T08:30:13.036Z,959.33
2017-01-10T08:31:12.992Z,959.32
2017-01-10T08:32:12.952Z,959.3
2017-01-10T08:33:12.909Z,959.3
2017-01-10T08:34:12.862Z,959.32
2017-01-10T08:35:12.818Z,959.27
2017-01-10T08:36:12.775Z,959.28
2017-01-10T08:37:12.732Z,959.28
2017-01-10T08:38:12.691Z,959.33
2017-01-10T08:39:12.648Z,959.35
2017-01-10T08:40:12.604Z,959.34
2017-01-10T08:41:12.559Z,959.32
2017-01-10T08:42:12.517Z,959.32
2017-01-10T08:43:12.474Z,959.33
2017-01-10T08:44:12.431Z,959.35
2017-01-10T08:45:12.386Z,959.36
2017-01-10T08:46:12.345Z,959.36
2017-01-10T08:47:12.301Z,959.29
2017-01-10T08:48:12.257Z,959.31
2017-01-10T08:49:12.216Z,959.33
2017-01-10T08:50:12.173Z,959.31
2017-01-10T08:51:12.128Z,959.3
2017-01-10T08:52:12.084Z,959.26
2017-01-10T08:53:12.040Z,959.26
2017-01-10T08:54:11.999Z,959.23
2017-01-10T08:55:11.955Z,959.28
2017-01-10T08:56:11.911Z,959.31
2017-01-10T08:57:11.869Z,959.23
2017-01-10T08:58:11.825Z,959.22
2017-01-10T08:59:11.780Z,959.23
2017-01-10T09:00:11.740Z,959.24
2017-01-10T09:01:11.695Z,959.25
2017-01-10T09:02:11.652Z,959.22
2017-01-10T09:03:11.609Z,959.24
2017-01-10T09:04:11.565Z,959.29
2017-01-10T09:05:11.523Z,959.26
2017-01-10T09:06:11.480Z,959.22
2017-01-10T09:07:11.438Z,959.23
2017-01-10T09:08:11.395Z,959.24
2017-01-10T09:09:11.352Z,959.2
2017-01-10T09:10:11.309Z,959.23
2017-01-10T09:11:11.265Z,959.26
2017-01-10T09:12:11.223Z,959.25
2017-01-10T09:13:11.179Z,959.29
2017-01-10T09:14:11.136Z,959.27
2017-01-10T09:15:11.093Z,959.27
2017-01-10T09:16:11.050Z,959.32
2017-01-10T09:17:11.007Z,959.33
2017-01-10T09:18:10.964Z,959.31
2017-01-10T09:19:10.922Z,959.26
2017-01-10T09:20:10.880Z,959.24
2017-01-10T09:21:10.836Z,959.21
2017-01-10T09:22:10.793Z,959.16
2017-01-10T09:23:10.750Z,959.16
2017-01-10T09:24:10.708Z,959.19
2017-01-10T09:25:10.665Z,959.22
2017-01-10T09:26:10.622Z,959.21
2017-01-10T09:27:10.580Z,959.27
2017-01-10T09:28:10.538Z,959.33
2017-01-10T09:29:10.496Z,959.29
2017-01-10T09:30:10.451Z,959.32
2017-01-10T09:31:10.411Z,959.35
2017-01-10T09:32:10.366Z,959.35
2017-01-10T09:33:10.328Z,959.37
2017-01-10T09:34:10.282Z,959.38
2017-01-10T09:35:10.248Z,959.42
2017-01-10T09:36:10.195Z,959.41
2017-01-10T09:37:10.152Z,959.38
2017-01-10T09:38:10.112Z,959.42
2017-01-10T09:39:10.070Z,959.45
2017-01-10T09:40:10.026Z,959.39
2017-01-10T09:41:09.984Z,959.38
2017-01-10T09:42:09.941Z,959.33
2017-01-10T09:43:09.898Z,959.32
2017-01-10T09:44:09.858Z,959.36
2017-01-10T09:45:09.815Z,959.34
2017-01-10T09:46:09.773Z,959.34
2017-01-10T09:47:09.728Z,959.34
2017-01-10T09:48:09.688Z,959.3
2017-01-10T09:49:09.645Z,959.29
2017-01-10T09:50:09.602Z,959.29
2017-01-10T09:51:09.559Z,959.31
2017-01-10T09:52:09.524Z,959.28
2017-01-10T09:53:09.475Z,959.26
2017-01-10T09:54:09.432Z,959.28
2017-01-10T09:55:09.390Z,959.2
2017-01-10T09:56:09.347Z,959.25
2017-01-10T09:57:09.305Z,959.25
2017-01-10T09:58:09.262Z,959.3
2017-01-10T09:59:09.219Z,959.3
2017-01-10T10:00:09.178Z,959.25
2017-01-10T10:01:09.135Z,959.26
2017-01-10T10:02:09.092Z,959.28
2017-01-10T10:03:09.050Z,959.27
2017-01-10T10:04:09.008Z,959.31
2017-01-10T10:05:08.965Z,959.35
2017-01-10T10:06:08.926Z,959.28
2017-01-10T10:07:08.880Z,959.27
2017-01-10T10:08:08.843Z,959.27
2017-01-10T10:09:08.796Z,959.28
2017-01-10T10:10:08.753Z,959.25
2017-01-10T10:11:08.721Z,959.24
2017-01-10T10:12:08.669Z,959.2
2017-01-10T10:13:08.626Z,959.16
2017-01-10T10:14:08.584Z,959.16
2017-01-10T10:15:08.543Z,959.2
2017-01-10T10:16:08.499Z,959.14
2017-01-10T10:17:08.457Z,959.13
2017-01-10T10:18:08.418Z,959.15
2017-01-10T10:19:08.373Z,959.14
2017-01-10T10:20:08.329Z,959.16
2017-01-10T10:21:08.288Z,959.16
2017-01-10T10:22:08.244Z,959.24
2017-01-10T10:23:08.207Z,959.21
2017-01-10T10:24:08.161Z,959.13
2017-01-10T10:25:08.118Z,959.11
2017-01-10T10:26:08.075Z,959.1
2017-01-10T10:27:08.031Z,959.05
2017-01-10T10:28:07.990Z,959.08
2017-01-10T10:29:07.946Z,959.07
2017-01-10T10:30:07.901Z,959.03
2017-01-10T10:31:07.861Z,959
2017-01-10T10:32:07.816Z,959.01
2017-01-10T10:33:07.775Z,958.99
2017-01-10T10:34:07.729Z,958.94
2017-01-10T10:35:07.687Z,958.98
2017-01-10T10:36:07.645Z,958.95
2017-01-10T10:37:07.602Z,958.93
2017-01-10T10:38:07.560Z,958.83
2017-01-10T10:39:07.515Z,958.86
2017-01-10T10:40:07.474Z,958.88
2017-01-10T10:41:07.429Z,958.82
2017-01-10T10:42:07.386Z,958.8
2017-01-10T10:43:07.343Z,958.76
2017-01-10T10:44:07.301Z,958.77
2017-01-10T10:45:07.258Z,958.75
2017-01-10T10:46:07.214Z,958.72
2017-01-10T10:47:07.172Z,958.72
2017-01-10T10:48:07.129Z,958.65
2017-01-10T10:49:07.087Z,958.61
2017-01-10T10:50:07.046Z,958.66
2017-01-10T10:51:07.001Z,958.58
2017-01-10T10:52:06.958Z,958.58
2017-01-10T10:53:06.918Z,958.55
2017-01-10T10:54:06.873Z,958.61
2017-01-10T10:55:06.830Z,958.61
2017-01-10T10:56:06.787Z,958.56
2017-01-10T10:57:06.745Z,958.59
2017-01-10T10:58:06.702Z,958.6
2017-01-10T10:59:06.662Z,958.62
2017-01-10T11:00:06.617Z,958.63
2017-01-10T11:01:06.574Z,958.58
2017-01-10T11:02:06.533Z,958.58
2017-01-10T11:03:06.492Z,958.57
2017-01-10T11:04:06.446Z,958.51
2017-01-10T11:05:06.406Z,958.53
2017-01-10T11:06:06.365Z,958.47
2017-01-10T11:07:06.321Z,958.51
2017-01-10T11:08:06.278Z,958.46
2017-01-10T11:09:06.235Z,958.46
2017-01-10T11:10:06.194Z,958.41
2017-01-10T11:11:06.151Z,958.44
2017-01-10T11:12:06.109Z,958.43
2017-01-10T11:13:06.073Z,958.42
2017-01-10T11:14:06.025Z,958.42
2017-01-10T11:15:06.138Z,958.4
2017-01-10T11:16:05.941Z,958.36
2017-01-10T11:17:05.896Z,958.43
2017-01-10T11:18:05.853Z,958.43
2017-01-10T11:19:05.811Z,958.4
2017-01-10T11:20:05.771Z,958.39
2017-01-10T11:21:05.728Z,958.41
2017-01-10T11:22:05.685Z,958.35
2017-01-10T11:23:05.644Z,958.28
2017-01-10T11:24:05.601Z,958.33
2017-01-10T11:25:05.560Z,958.27
2017-01-10T11:26:05.518Z,958.32
2017-01-10T11:27:05.479Z,958.29
2017-01-10T11:28:05.434Z,958.34
2017-01-10T11:29:05.391Z,958.34
2017-01-10T11:30:05.350Z,958.29
2017-01-10T11:31:05.306Z,958.3
2017-01-10T11:32:05.266Z,958.37
2017-01-10T11:33:05.221Z,958.34
2017-01-10T11:34:05.182Z,958.32
2017-01-10T11:35:05.138Z,958.36
2017-01-10T11:36:05.096Z,958.34
2017-01-10T11:37:05.051Z,958.32
2017-01-10T11:38:05.010Z,958.29
2017-01-10T11:39:04.968Z,958.29
2017-01-10T11:40:04.924Z,958.26
2017-01-10T11:41:04.883Z,958.19
2017-01-10T11:42:04.840Z,958.23
2017-01-10T11:43:04.799Z,958.21
2017-01-10T11:44:04.755Z,958.19
2017-01-10T11:45:04.713Z,958.24
2017-01-10T11:46:04.670Z,958.26
2017-01-10T11:47:04.629Z,958.27
2017-01-10T11:48:04.587Z,958.21
2017-01-10T11:49:04.543Z,958.17
2017-01-10T11:50:04.503Z,958.22
2017-01-10T11:51:04.457Z,958.16
2017-01-10T11:52:04.417Z,958.18
2017-01-10T11:53:04.375Z,958.18
2017-01-10T11:54:04.332Z,958.14
2017-01-10T11:55:04.290Z,958.14
2017-01-10T11:56:04.245Z,958.12
2017-01-10T11:57:04.204Z,958.11
2017-01-10T11:58:04.161Z,958.11
2017-01-10T11:59:04.120Z,958.11
2017-01-10T12:00:04.073Z,958.1
2017-01-10T12:01:04.033Z,958.09
2017-01-10T12:02:03.989Z,958.09
2017-01-10T12:03:03.946Z,958.09
2017-01-10T12:04:03.904Z,958.04
2017-01-10T12:05:03.996Z,958.03
2017-01-10T12:06:03.815Z,957.99
2017-01-10T12:07:03.774Z,957.97
2017-01-10T12:08:03.731Z,957.93
2017-01-10T12:09:03.686Z,957.96
2017-01-10T12:10:03.644Z,957.92
2017-01-10T12:11:03.602Z,957.95
2017-01-10T12:12:03.558Z,957.96
2017-01-10T12:13:03.514Z,957.92
2017-01-10T12:14:03.471Z,957.98
2017-01-10T12:15:03.437Z,957.95
2017-01-10T12:16:03.388Z,957.93
2017-01-10T12:17:03.343Z,958.02
2017-01-10T12:18:03.301Z,957.97
2017-01-10T12:19:03.257Z,957.99
2017-01-10T12:20:03.215Z,957.96
2017-01-10T12:21:03.171Z,957.95
2017-01-10T12:22:03.127Z,957.92
2017-01-10T12:23:03.085Z,957.88
2017-01-10T12:24:03.044Z,957.9
2017-01-10T12:25:03.000Z,957.85
2017-01-10T12:26:02.956Z,957.84
2017-01-10T12:27:02.913Z,957.84
2017-01-10T12:28:02.871Z,957.87
2017-01-10T12:29:02.827Z,957.83
2017-01-10T12:30:02.786Z,957.82
2017-01-10T12:31:02.741Z,957.8
2017-01-10T12:32:02.698Z,957.79